sensor_id;sensor_type;location;lat;lon;timestamp;temperature;humidity
11609;DHT22;5860;52.018;8.536;2023-04-03T00:00:56;2.60;99.90
11609;DHT22;5860;52.018;8.536;2023-04-03T00:03:23;2.50;99.90
11609;DHT22;5860;52.018;8.536;2023-04-03T00:05:50;2.50;99.90
11609;DHT22;5860;52.018;8.536;2023-04-03T00:08:25;2.50;99.90
11609;DHT22;5860;52.018;8.536;2023-04-03T00:10:52;2.50;99.90
11609;DHT22;5860;52.018;8.536;2023-04-03T00:13:19;2.50;99.90
11609;DHT22;5860;52.018;8.536;2023-04-03T00:15:46;2.50;99.90
11609;DHT22;5860;52.018;8.536;2023-04-03T00:18:13;2.40;99.90
11609;DHT22;5860;52.018;8.536;2023-04-03T00:20:40;2.30;99.90
11609;DHT22;5860;52.018;8.536;2023-04-03T00:23:07;2.30;99.90
11609;DHT22;5860;52.018;8.536;2023-04-03T00:25:35;2.30;99.90
11609;DHT22;5860;52.018;8.536;2023-04-03T00:28:03;2.30;99.90
11609;DHT22;5860;52.018;8.536;2023-04-03T00:30:30;2.30;99.90
11609;DHT22;5860;52.018;8.536;2023-04-03T00:32:58;2.30;99.90
11609;DHT22;5860;52.018;8.536;2023-04-03T00:35:25;2.30;99.90
11609;DHT22;5860;52.018;8.536;2023-04-03T00:37:54;2.20;99.90
11609;DHT22;5860;52.018;8.536;2023-04-03T00:40:24;2.20;99.90
11609;DHT22;5860;52.018;8.536;2023-04-03T00:42:56;2.10;99.90
11609;DHT22;5860;52.018;8.536;2023-04-03T00:45:38;2.10;99.90
11609;DHT22;5860;52.018;8.536;2023-04-03T00:48:11;2.00;99.90
11609;DHT22;5860;52.018;8.536;2023-04-03T00:50:41;2.00;99.90
11609;DHT22;5860;52.018;8.536;2023-04-03T00:53:12;2.00;99.90
11609;DHT22;5860;52.018;8.536;2023-04-03T00:55:41;2.00;99.90
11609;DHT22;5860;52.018;8.536;2023-04-03T00:58:10;2.00;99.90
11609;DHT22;5860;52.018;8.536;2023-04-03T01:00:41;1.90;99.90
11609;DHT22;5860;52.018;8.536;2023-04-03T01:03:09;1.80;99.90
11609;DHT22;5860;52.018;8.536;2023-04-03T01:05:36;1.80;99.90
11609;DHT22;5860;52.018;8.536;2023-04-03T01:08:03;1.70;99.90
11609;DHT22;5860;52.018;8.536;2023-04-03T01:10:30;1.70;99.90
11609;DHT22;5860;52.018;8.536;2023-04-03T01:12:59;1.70;99.90
11609;DHT22;5860;52.018;8.536;2023-04-03T01:15:27;1.70;99.90
11609;DHT22;5860;52.018;8.536;2023-04-03T01:18:01;1.70;99.90
11609;DHT22;5860;52.018;8.536;2023-04-03T01:28:16;1.50;99.90
11609;DHT22;5860;52.018;8.536;2023-04-03T01:33:42;1.40;99.90
11609;DHT22;5860;52.018;8.536;2023-04-03T01:36:12;1.50;99.90
11609;DHT22;5860;52.018;8.536;2023-04-03T01:38:39;1.30;99.90
11609;DHT22;5860;52.018;8.536;2023-04-03T01:41:07;1.30;99.90
11609;DHT22;5860;52.018;8.536;2023-04-03T01:43:34;1.30;99.90
11609;DHT22;5860;52.018;8.536;2023-04-03T01:46:00;1.20;99.90
11609;DHT22;5860;52.018;8.536;2023-04-03T01:48:28;1.20;99.90
11609;DHT22;5860;52.018;8.536;2023-04-03T01:50:54;1.20;99.90
11609;DHT22;5860;52.018;8.536;2023-04-03T01:53:21;1.20;99.90
11609;DHT22;5860;52.018;8.536;2023-04-03T01:55:48;1.10;99.90
11609;DHT22;5860;52.018;8.536;2023-04-03T01:58:15;1.20;99.90
11609;DHT22;5860;52.018;8.536;2023-04-03T02:00:42;1.10;99.90
11609;DHT22;5860;52.018;8.536;2023-04-03T02:03:09;1.10;99.90
11609;DHT22;5860;52.018;8.536;2023-04-03T02:05:36;1.10;99.90
11609;DHT22;5860;52.018;8.536;2023-04-03T02:08:03;1.00;99.90
11609;DHT22;5860;52.018;8.536;2023-04-03T02:10:30;1.00;99.90
11609;DHT22;5860;52.018;8.536;2023-04-03T02:12:57;0.90;99.90
11609;DHT22;5860;52.018;8.536;2023-04-03T02:15:24;0.90;99.90
11609;DHT22;5860;52.018;8.536;2023-04-03T02:17:51;0.90;99.90
11609;DHT22;5860;52.018;8.536;2023-04-03T02:20:19;0.80;99.90
11609;DHT22;5860;52.018;8.536;2023-04-03T02:22:46;0.80;99.90
11609;DHT22;5860;52.018;8.536;2023-04-03T02:25:13;0.80;99.90
11609;DHT22;5860;52.018;8.536;2023-04-03T02:27:40;0.70;99.90
11609;DHT22;5860;52.018;8.536;2023-04-03T02:30:07;0.70;99.90
11609;DHT22;5860;52.018;8.536;2023-04-03T02:32:37;0.70;99.90
11609;DHT22;5860;52.018;8.536;2023-04-03T02:35:04;0.60;99.90
11609;DHT22;5860;52.018;8.536;2023-04-03T02:37:32;0.60;99.90
11609;DHT22;5860;52.018;8.536;2023-04-03T02:39:59;0.60;99.90
11609;DHT22;5860;52.018;8.536;2023-04-03T02:42:27;0.50;99.90
11609;DHT22;5860;52.018;8.536;2023-04-03T02:44:54;0.50;99.90
11609;DHT22;5860;52.018;8.536;2023-04-03T02:47:22;0.50;99.90
11609;DHT22;5860;52.018;8.536;2023-04-03T02:49:49;0.50;99.90
11609;DHT22;5860;52.018;8.536;2023-04-03T02:52:16;0.40;99.90
11609;DHT22;5860;52.018;8.536;2023-04-03T02:54:43;0.40;99.90
11609;DHT22;5860;52.018;8.536;2023-04-03T02:57:10;0.30;99.90
11609;DHT22;5860;52.018;8.536;2023-04-03T02:59:37;0.40;99.90
11609;DHT22;5860;52.018;8.536;2023-04-03T03:02:08;0.40;99.90
11609;DHT22;5860;52.018;8.536;2023-04-03T03:04:36;0.30;99.90
11609;DHT22;5860;52.018;8.536;2023-04-03T03:07:03;0.30;99.90
11609;DHT22;5860;52.018;8.536;2023-04-03T03:09:30;0.40;99.90
11609;DHT22;5860;52.018;8.536;2023-04-03T03:11:57;0.30;99.90
11609;DHT22;5860;52.018;8.536;2023-04-03T03:14:24;0.30;99.90
11609;DHT22;5860;52.018;8.536;2023-04-03T03:16:51;0.20;99.90
11609;DHT22;5860;52.018;8.536;2023-04-03T03:19:18;0.20;99.90
11609;DHT22;5860;52.018;8.536;2023-04-03T03:21:45;0.20;99.90
11609;DHT22;5860;52.018;8.536;2023-04-03T03:24:11;0.10;99.90
11609;DHT22;5860;52.018;8.536;2023-04-03T03:26:39;0.10;99.90
11609;DHT22;5860;52.018;8.536;2023-04-03T03:29:06;0.00;99.90
11609;DHT22;5860;52.018;8.536;2023-04-03T03:31:33;0.10;99.90
11609;DHT22;5860;52.018;8.536;2023-04-03T03:34:00;0.10;99.90
11609;DHT22;5860;52.018;8.536;2023-04-03T03:36:27;0.10;99.90
11609;DHT22;5860;52.018;8.536;2023-04-03T03:38:54;0.10;99.90
11609;DHT22;5860;52.018;8.536;2023-04-03T03:41:21;0.10;99.90
11609;DHT22;5860;52.018;8.536;2023-04-03T03:43:48;0.00;99.90
11609;DHT22;5860;52.018;8.536;2023-04-03T03:46:15;0.00;99.90
11609;DHT22;5860;52.018;8.536;2023-04-03T03:48:42;-0.10;99.90
11609;DHT22;5860;52.018;8.536;2023-04-03T03:51:09;-0.20;99.90
11609;DHT22;5860;52.018;8.536;2023-04-03T03:53:36;-0.10;99.90
11609;DHT22;5860;52.018;8.536;2023-04-03T03:56:04;-0.10;99.90
11609;DHT22;5860;52.018;8.536;2023-04-03T03:58:32;-0.20;99.90
11609;DHT22;5860;52.018;8.536;2023-04-03T04:01:04;-0.10;99.90
11609;DHT22;5860;52.018;8.536;2023-04-03T04:03:32;-0.10;99.90
11609;DHT22;5860;52.018;8.536;2023-04-03T04:06:00;-0.20;99.90
11609;DHT22;5860;52.018;8.536;2023-04-03T04:08:27;-0.20;99.90
11609;DHT22;5860;52.018;8.536;2023-04-03T04:10:54;-0.20;99.90
11609;DHT22;5860;52.018;8.536;2023-04-03T04:13:21;-0.20;99.90
11609;DHT22;5860;52.018;8.536;2023-04-03T04:15:48;-0.30;99.90
11609;DHT22;5860;52.018;8.536;2023-04-03T04:18:15;-0.30;99.90
11609;DHT22;5860;52.018;8.536;2023-04-03T04:20:42;-0.40;99.90
11609;DHT22;5860;52.018;8.536;2023-04-03T04:23:11;-0.30;99.90
11609;DHT22;5860;52.018;8.536;2023-04-03T04:25:38;-0.30;99.90
11609;DHT22;5860;52.018;8.536;2023-04-03T04:28:05;-0.30;99.90
11609;DHT22;5860;52.018;8.536;2023-04-03T04:30:32;-0.40;99.90
11609;DHT22;5860;52.018;8.536;2023-04-03T04:32:58;-0.40;99.90
11609;DHT22;5860;52.018;8.536;2023-04-03T04:35:27;-0.40;99.90
11609;DHT22;5860;52.018;8.536;2023-04-03T04:37:54;-0.40;99.90
11609;DHT22;5860;52.018;8.536;2023-04-03T04:40:21;-0.40;99.90
11609;DHT22;5860;52.018;8.536;2023-04-03T04:42:48;-0.40;99.90
11609;DHT22;5860;52.018;8.536;2023-04-03T04:45:15;-0.50;99.90
11609;DHT22;5860;52.018;8.536;2023-04-03T04:47:42;-0.50;99.90
11609;DHT22;5860;52.018;8.536;2023-04-03T04:50:10;-0.50;99.90
11609;DHT22;5860;52.018;8.536;2023-04-03T04:52:38;-0.50;99.90
11609;DHT22;5860;52.018;8.536;2023-04-03T04:55:05;-0.50;99.90
11609;DHT22;5860;52.018;8.536;2023-04-03T04:57:33;-0.50;99.90
11609;DHT22;5860;52.018;8.536;2023-04-03T05:00:00;-0.50;99.90
11609;DHT22;5860;52.018;8.536;2023-04-03T05:02:27;-0.60;99.90
11609;DHT22;5860;52.018;8.536;2023-04-03T05:04:54;-0.50;99.90
11609;DHT22;5860;52.018;8.536;2023-04-03T05:07:21;-0.50;99.90
11609;DHT22;5860;52.018;8.536;2023-04-03T05:09:48;-0.50;99.90
11609;DHT22;5860;52.018;8.536;2023-04-03T05:12:16;-0.40;99.90
11609;DHT22;5860;52.018;8.536;2023-04-03T05:14:43;-0.40;99.90
11609;DHT22;5860;52.018;8.536;2023-04-03T05:17:10;-0.40;99.90
11609;DHT22;5860;52.018;8.536;2023-04-03T05:19:37;-0.40;99.90
11609;DHT22;5860;52.018;8.536;2023-04-03T05:22:04;-0.30;99.90
11609;DHT22;5860;52.018;8.536;2023-04-03T05:24:31;-0.40;99.90
11609;DHT22;5860;52.018;8.536;2023-04-03T05:26:58;-0.30;99.90
11609;DHT22;5860;52.018;8.536;2023-04-03T05:29:25;-0.30;99.90
11609;DHT22;5860;52.018;8.536;2023-04-03T05:31:52;-0.30;99.90
11609;DHT22;5860;52.018;8.536;2023-04-03T05:34:20;-0.20;99.90
11609;DHT22;5860;52.018;8.536;2023-04-03T05:36:47;-0.20;99.90
11609;DHT22;5860;52.018;8.536;2023-04-03T05:39:14;-0.10;99.90
11609;DHT22;5860;52.018;8.536;2023-04-03T05:41:41;-0.10;99.90
11609;DHT22;5860;52.018;8.536;2023-04-03T05:44:08;-0.10;99.90
11609;DHT22;5860;52.018;8.536;2023-04-03T05:46:35;0.00;99.90
11609;DHT22;5860;52.018;8.536;2023-04-03T05:49:02;0.10;99.90
11609;DHT22;5860;52.018;8.536;2023-04-03T05:51:33;0.10;99.90
11609;DHT22;5860;52.018;8.536;2023-04-03T05:54:21;0.10;99.90
11609;DHT22;5860;52.018;8.536;2023-04-03T05:56:50;0.20;99.90
11609;DHT22;5860;52.018;8.536;2023-04-03T05:59:18;0.30;99.90
11609;DHT22;5860;52.018;8.536;2023-04-03T06:01:45;0.30;99.90
11609;DHT22;5860;52.018;8.536;2023-04-03T06:04:13;0.40;99.90
11609;DHT22;5860;52.018;8.536;2023-04-03T06:06:49;0.40;99.90
11609;DHT22;5860;52.018;8.536;2023-04-03T06:09:20;0.60;99.90
11609;DHT22;5860;52.018;8.536;2023-04-03T06:11:47;3.10;99.90
11609;DHT22;5860;52.018;8.536;2023-04-03T06:14:14;5.70;99.90
11609;DHT22;5860;52.018;8.536;2023-04-03T06:16:41;7.00;99.90
11609;DHT22;5860;52.018;8.536;2023-04-03T06:19:09;8.60;99.90
11609;DHT22;5860;52.018;8.536;2023-04-03T06:21:37;8.90;99.90
11609;DHT22;5860;52.018;8.536;2023-04-03T06:24:05;8.60;99.90
11609;DHT22;5860;52.018;8.536;2023-04-03T06:26:33;9.60;99.90
11609;DHT22;5860;52.018;8.536;2023-04-03T06:29:00;9.30;99.90
11609;DHT22;5860;52.018;8.536;2023-04-03T06:31:29;9.50;99.90
11609;DHT22;5860;52.018;8.536;2023-04-03T06:33:56;9.90;99.90
11609;DHT22;5860;52.018;8.536;2023-04-03T06:36:23;9.40;99.90
11609;DHT22;5860;52.018;8.536;2023-04-03T06:38:51;9.20;99.90
11609;DHT22;5860;52.018;8.536;2023-04-03T06:41:18;11.20;99.90
11609;DHT22;5860;52.018;8.536;2023-04-03T06:43:44;10.90;99.90
11609;DHT22;5860;52.018;8.536;2023-04-03T06:46:16;11.40;99.90
11609;DHT22;5860;52.018;8.536;2023-04-03T06:48:44;9.80;99.90
11609;DHT22;5860;52.018;8.536;2023-04-03T06:51:31;9.20;99.90
11609;DHT22;5860;52.018;8.536;2023-04-03T06:53:59;7.50;99.90
11609;DHT22;5860;52.018;8.536;2023-04-03T06:56:27;5.80;99.90
11609;DHT22;5860;52.018;8.536;2023-04-03T06:58:55;6.20;99.90
11609;DHT22;5860;52.018;8.536;2023-04-03T07:01:28;4.60;99.90
11609;DHT22;5860;52.018;8.536;2023-04-03T07:03:56;5.20;99.90
11609;DHT22;5860;52.018;8.536;2023-04-03T07:06:24;4.50;99.90
11609;DHT22;5860;52.018;8.536;2023-04-03T07:08:54;3.60;99.90
11609;DHT22;5860;52.018;8.536;2023-04-03T07:11:21;2.80;99.90
11609;DHT22;5860;52.018;8.536;2023-04-03T07:13:51;2.80;99.90
11609;DHT22;5860;52.018;8.536;2023-04-03T07:16:19;2.50;99.90
11609;DHT22;5860;52.018;8.536;2023-04-03T07:18:46;2.30;99.90
11609;DHT22;5860;52.018;8.536;2023-04-03T07:21:14;2.40;99.90
11609;DHT22;5860;52.018;8.536;2023-04-03T07:23:41;2.50;99.90
11609;DHT22;5860;52.018;8.536;2023-04-03T07:26:08;2.40;99.90
11609;DHT22;5860;52.018;8.536;2023-04-03T07:28:35;2.40;99.90
11609;DHT22;5860;52.018;8.536;2023-04-03T07:31:06;2.60;99.90
11609;DHT22;5860;52.018;8.536;2023-04-03T07:33:36;2.70;99.90
11609;DHT22;5860;52.018;8.536;2023-04-03T07:36:05;2.80;99.90
11609;DHT22;5860;52.018;8.536;2023-04-03T07:38:35;2.90;99.90
11609;DHT22;5860;52.018;8.536;2023-04-03T07:41:04;2.90;99.90
11609;DHT22;5860;52.018;8.536;2023-04-03T07:43:31;2.80;99.90
11609;DHT22;5860;52.018;8.536;2023-04-03T07:45:59;3.00;99.90
11609;DHT22;5860;52.018;8.536;2023-04-03T07:48:27;2.90;99.90
11609;DHT22;5860;52.018;8.536;2023-04-03T07:50:59;3.00;99.90
11609;DHT22;5860;52.018;8.536;2023-04-03T07:53:27;3.20;99.90
11609;DHT22;5860;52.018;8.536;2023-04-03T07:55:58;3.00;99.90
11609;DHT22;5860;52.018;8.536;2023-04-03T07:58:25;3.10;99.90
11609;DHT22;5860;52.018;8.536;2023-04-03T08:00:53;3.10;99.90
11609;DHT22;5860;52.018;8.536;2023-04-03T08:03:20;3.10;99.90
11609;DHT22;5860;52.018;8.536;2023-04-03T08:05:49;3.20;99.90
11609;DHT22;5860;52.018;8.536;2023-04-03T08:08:18;3.30;99.90
11609;DHT22;5860;52.018;8.536;2023-04-03T08:10:54;3.40;99.90
11609;DHT22;5860;52.018;8.536;2023-04-03T08:13:22;3.50;99.90
11609;DHT22;5860;52.018;8.536;2023-04-03T08:15:49;3.70;99.90
11609;DHT22;5860;52.018;8.536;2023-04-03T08:18:17;3.60;99.90
11609;DHT22;5860;52.018;8.536;2023-04-03T08:20:48;3.50;99.90
11609;DHT22;5860;52.018;8.536;2023-04-03T08:23:15;3.40;99.90
11609;DHT22;5860;52.018;8.536;2023-04-03T08:25:45;3.40;99.90
11609;DHT22;5860;52.018;8.536;2023-04-03T08:28:13;3.50;99.90
11609;DHT22;5860;52.018;8.536;2023-04-03T08:30:41;3.50;99.90
11609;DHT22;5860;52.018;8.536;2023-04-03T08:33:09;3.60;99.90
11609;DHT22;5860;52.018;8.536;2023-04-03T08:35:41;3.70;99.90
11609;DHT22;5860;52.018;8.536;2023-04-03T08:38:10;3.50;99.90
11609;DHT22;5860;52.018;8.536;2023-04-03T08:40:38;3.70;99.90
11609;DHT22;5860;52.018;8.536;2023-04-03T08:45:55;3.60;99.90
11609;DHT22;5860;52.018;8.536;2023-04-03T08:48:31;3.50;99.90
11609;DHT22;5860;52.018;8.536;2023-04-03T08:51:08;3.70;99.90
11609;DHT22;5860;52.018;8.536;2023-04-03T08:56:24;3.60;99.90
11609;DHT22;5860;52.018;8.536;2023-04-03T08:58:57;3.70;99.90
11609;DHT22;5860;52.018;8.536;2023-04-03T09:01:37;3.90;99.90
11609;DHT22;5860;52.018;8.536;2023-04-03T09:04:15;3.90;99.90
11609;DHT22;5860;52.018;8.536;2023-04-03T09:06:57;3.80;99.90
11609;DHT22;5860;52.018;8.536;2023-04-03T09:09:36;3.80;99.90
11609;DHT22;5860;52.018;8.536;2023-04-03T09:12:27;3.90;99.90
11609;DHT22;5860;52.018;8.536;2023-04-03T09:15:18;3.90;99.90
11609;DHT22;5860;52.018;8.536;2023-04-03T09:18:53;3.80;99.90
11609;DHT22;5860;52.018;8.536;2023-04-03T09:21:34;4.30;99.90
11609;DHT22;5860;52.018;8.536;2023-04-03T09:24:06;4.30;99.90
11609;DHT22;5860;52.018;8.536;2023-04-03T09:26:45;4.20;99.90
11609;DHT22;5860;52.018;8.536;2023-04-03T09:29:19;4.30;99.90
11609;DHT22;5860;52.018;8.536;2023-04-03T09:31:50;4.30;99.90
11609;DHT22;5860;52.018;8.536;2023-04-03T09:34:45;4.30;99.90
11609;DHT22;5860;52.018;8.536;2023-04-03T09:37:40;4.40;99.90
11609;DHT22;5860;52.018;8.536;2023-04-03T09:40:35;4.60;99.90
11609;DHT22;5860;52.018;8.536;2023-04-03T09:43:24;4.70;99.90
11609;DHT22;5860;52.018;8.536;2023-04-03T09:45:53;4.40;99.90
11609;DHT22;5860;52.018;8.536;2023-04-03T09:48:22;4.80;99.90
11609;DHT22;5860;52.018;8.536;2023-04-03T09:53:38;4.80;99.90
11609;DHT22;5860;52.018;8.536;2023-04-03T09:59:13;5.30;99.90
11609;DHT22;5860;52.018;8.536;2023-04-03T10:02:15;5.30;99.90
11609;DHT22;5860;52.018;8.536;2023-04-03T10:04:48;5.10;99.90
11609;DHT22;5860;52.018;8.536;2023-04-03T10:07:38;5.40;99.90
11609;DHT22;5860;52.018;8.536;2023-04-03T10:10:19;5.70;99.90
11609;DHT22;5860;52.018;8.536;2023-04-03T10:12:47;5.20;99.90
11609;DHT22;5860;52.018;8.536;2023-04-03T10:15:16;5.60;99.90
11609;DHT22;5860;52.018;8.536;2023-04-03T10:18:00;5.90;99.90
11609;DHT22;5860;52.018;8.536;2023-04-03T10:20:49;5.50;99.90
11609;DHT22;5860;52.018;8.536;2023-04-03T10:23:28;5.60;99.90
11609;DHT22;5860;52.018;8.536;2023-04-03T10:29:07;5.60;99.90
11609;DHT22;5860;52.018;8.536;2023-04-03T10:34:42;5.30;99.90
11609;DHT22;5860;52.018;8.536;2023-04-03T10:37:59;5.30;99.90
11609;DHT22;5860;52.018;8.536;2023-04-03T10:46:11;5.70;99.90
11609;DHT22;5860;52.018;8.536;2023-04-03T10:54:43;6.00;99.90
11609;DHT22;5860;52.018;8.536;2023-04-03T10:57:13;6.00;99.90
11609;DHT22;5860;52.018;8.536;2023-04-03T10:59:52;6.20;99.90
11609;DHT22;5860;52.018;8.536;2023-04-03T11:02:41;6.30;99.90
11609;DHT22;5860;52.018;8.536;2023-04-03T11:05:34;6.60;99.90
11609;DHT22;5860;52.018;8.536;2023-04-03T11:08:10;6.70;99.90
11609;DHT22;5860;52.018;8.536;2023-04-03T11:10:44;6.70;99.90
11609;DHT22;5860;52.018;8.536;2023-04-03T11:13:17;7.00;99.90
11609;DHT22;5860;52.018;8.536;2023-04-03T11:15:47;6.70;99.90
11609;DHT22;5860;52.018;8.536;2023-04-03T11:21:09;6.30;99.90
11609;DHT22;5860;52.018;8.536;2023-04-03T11:23:40;5.80;99.90
11609;DHT22;5860;52.018;8.536;2023-04-03T11:26:21;5.60;99.90
11609;DHT22;5860;52.018;8.536;2023-04-03T11:29:03;5.90;99.90
11609;DHT22;5860;52.018;8.536;2023-04-03T11:32:12;6.00;99.90
11609;DHT22;5860;52.018;8.536;2023-04-03T11:34:50;5.90;99.90
11609;DHT22;5860;52.018;8.536;2023-04-03T11:37:30;6.30;99.90
11609;DHT22;5860;52.018;8.536;2023-04-03T11:40:02;6.30;99.90
11609;DHT22;5860;52.018;8.536;2023-04-03T11:42:37;6.40;99.90
11609;DHT22;5860;52.018;8.536;2023-04-03T11:50:50;5.90;99.90
11609;DHT22;5860;52.018;8.536;2023-04-03T11:58:28;5.80;99.90
11609;DHT22;5860;52.018;8.536;2023-04-03T12:01:10;6.10;99.90
11609;DHT22;5860;52.018;8.536;2023-04-03T12:08:47;6.70;99.90
11609;DHT22;5860;52.018;8.536;2023-04-03T12:11:24;6.90;99.90
11609;DHT22;5860;52.018;8.536;2023-04-03T12:30:27;6.50;99.90
11609;DHT22;5860;52.018;8.536;2023-04-03T12:48:46;6.90;99.90
11609;DHT22;5860;52.018;8.536;2023-04-03T12:51:35;7.10;99.90
11609;DHT22;5860;52.018;8.536;2023-04-03T12:54:20;7.00;99.90
11609;DHT22;5860;52.018;8.536;2023-04-03T12:56:49;6.80;99.70
11609;DHT22;5860;52.018;8.536;2023-04-03T12:59:26;7.20;99.90
11609;DHT22;5860;52.018;8.536;2023-04-03T13:01:58;7.30;99.90
11609;DHT22;5860;52.018;8.536;2023-04-03T13:04:31;7.00;99.90
11609;DHT22;5860;52.018;8.536;2023-04-03T13:06:58;6.90;99.90
11609;DHT22;5860;52.018;8.536;2023-04-03T13:09:29;6.90;99.90
11609;DHT22;5860;52.018;8.536;2023-04-03T13:12:13;6.90;99.90
11609;DHT22;5860;52.018;8.536;2023-04-03T13:14:49;7.00;99.90
11609;DHT22;5860;52.018;8.536;2023-04-03T13:17:18;6.60;99.90
11609;DHT22;5860;52.018;8.536;2023-04-03T13:19:45;6.40;99.90
11609;DHT22;5860;52.018;8.536;2023-04-03T13:22:35;6.30;99.90
11609;DHT22;5860;52.018;8.536;2023-04-03T13:25:10;6.10;99.90
11609;DHT22;5860;52.018;8.536;2023-04-03T13:27:38;6.10;99.90
11609;DHT22;5860;52.018;8.536;2023-04-03T13:30:17;6.20;99.90
11609;DHT22;5860;52.018;8.536;2023-04-03T13:32:44;6.10;99.90
11609;DHT22;5860;52.018;8.536;2023-04-03T13:37:58;6.30;99.90
11609;DHT22;5860;52.018;8.536;2023-04-03T13:40:27;6.30;99.90
11609;DHT22;5860;52.018;8.536;2023-04-03T13:43:14;6.50;99.90
11609;DHT22;5860;52.018;8.536;2023-04-03T13:48:48;6.90;99.90
11609;DHT22;5860;52.018;8.536;2023-04-03T13:51:49;7.00;99.90
11609;DHT22;5860;52.018;8.536;2023-04-03T13:54:21;7.10;99.90
11609;DHT22;5860;52.018;8.536;2023-04-03T13:56:57;7.10;99.80
11609;DHT22;5860;52.018;8.536;2023-04-03T13:59:35;7.10;99.40
11609;DHT22;5860;52.018;8.536;2023-04-03T14:07:12;7.60;97.60
11609;DHT22;5860;52.018;8.536;2023-04-03T14:09:39;7.60;97.80
11609;DHT22;5860;52.018;8.536;2023-04-03T14:12:21;7.70;98.30
11609;DHT22;5860;52.018;8.536;2023-04-03T14:14:59;7.30;97.80
11609;DHT22;5860;52.018;8.536;2023-04-03T14:17:28;7.30;98.00
11609;DHT22;5860;52.018;8.536;2023-04-03T14:19:57;7.20;98.00
11609;DHT22;5860;52.018;8.536;2023-04-03T14:22:27;7.30;98.50
11609;DHT22;5860;52.018;8.536;2023-04-03T14:24:56;7.40;97.90
11609;DHT22;5860;52.018;8.536;2023-04-03T14:27:35;7.30;97.70
11609;DHT22;5860;52.018;8.536;2023-04-03T14:30:04;7.20;97.20
11609;DHT22;5860;52.018;8.536;2023-04-03T14:32:32;7.10;96.70
11609;DHT22;5860;52.018;8.536;2023-04-03T14:34:59;7.60;97.10
11609;DHT22;5860;52.018;8.536;2023-04-03T14:37:29;7.50;97.00
11609;DHT22;5860;52.018;8.536;2023-04-03T14:39:58;7.80;97.00
11609;DHT22;5860;52.018;8.536;2023-04-03T14:42:36;7.50;96.30
11609;DHT22;5860;52.018;8.536;2023-04-03T14:45:07;7.40;97.20
11609;DHT22;5860;52.018;8.536;2023-04-03T14:47:44;7.30;97.40
11609;DHT22;5860;52.018;8.536;2023-04-03T14:50:20;7.20;96.40
11609;DHT22;5860;52.018;8.536;2023-04-03T14:52:51;7.00;96.70
11609;DHT22;5860;52.018;8.536;2023-04-03T14:55:20;7.10;96.70
11609;DHT22;5860;52.018;8.536;2023-04-03T14:57:48;7.20;96.80
11609;DHT22;5860;52.018;8.536;2023-04-03T15:00:18;6.90;96.40
11609;DHT22;5860;52.018;8.536;2023-04-03T15:02:46;6.70;96.80
11609;DHT22;5860;52.018;8.536;2023-04-03T15:05:15;6.80;97.10
11609;DHT22;5860;52.018;8.536;2023-04-03T15:07:46;7.10;97.10
11609;DHT22;5860;52.018;8.536;2023-04-03T15:10:27;7.20;96.90
11609;DHT22;5860;52.018;8.536;2023-04-03T15:12:56;7.20;96.90
11609;DHT22;5860;52.018;8.536;2023-04-03T15:15:24;6.90;96.80
11609;DHT22;5860;52.018;8.536;2023-04-03T15:17:53;7.00;97.40
11609;DHT22;5860;52.018;8.536;2023-04-03T15:20:24;7.00;96.80
11609;DHT22;5860;52.018;8.536;2023-04-03T15:22:51;7.30;97.00
11609;DHT22;5860;52.018;8.536;2023-04-03T15:25:18;7.10;96.50
11609;DHT22;5860;52.018;8.536;2023-04-03T15:27:45;7.00;96.70
11609;DHT22;5860;52.018;8.536;2023-04-03T15:30:17;6.70;96.80
11609;DHT22;5860;52.018;8.536;2023-04-03T15:32:44;6.70;97.00
11609;DHT22;5860;52.018;8.536;2023-04-03T15:35:12;6.60;97.50
11609;DHT22;5860;52.018;8.536;2023-04-03T15:37:39;6.70;96.40
11609;DHT22;5860;52.018;8.536;2023-04-03T15:40:07;6.90;97.00
11609;DHT22;5860;52.018;8.536;2023-04-03T15:42:34;7.10;97.10
11609;DHT22;5860;52.018;8.536;2023-04-03T15:45:01;7.20;96.80
11609;DHT22;5860;52.018;8.536;2023-04-03T15:47:29;7.30;95.90
11609;DHT22;5860;52.018;8.536;2023-04-03T15:49:56;7.00;95.50
11609;DHT22;5860;52.018;8.536;2023-04-03T15:52:23;7.10;95.80
11609;DHT22;5860;52.018;8.536;2023-04-03T15:54:50;7.30;96.30
11609;DHT22;5860;52.018;8.536;2023-04-03T15:57:17;7.50;96.30
11609;DHT22;5860;52.018;8.536;2023-04-03T15:59:44;7.10;95.90
11609;DHT22;5860;52.018;8.536;2023-04-03T16:02:13;7.20;96.80
11609;DHT22;5860;52.018;8.536;2023-04-03T16:04:40;7.10;97.10
11609;DHT22;5860;52.018;8.536;2023-04-03T16:07:10;6.90;97.40
11609;DHT22;5860;52.018;8.536;2023-04-03T16:09:37;6.70;96.30
11609;DHT22;5860;52.018;8.536;2023-04-03T16:12:04;6.70;96.50
11609;DHT22;5860;52.018;8.536;2023-04-03T16:14:31;6.60;96.40
11609;DHT22;5860;52.018;8.536;2023-04-03T16:16:59;6.70;96.50
11609;DHT22;5860;52.018;8.536;2023-04-03T16:19:26;6.60;96.10
11609;DHT22;5860;52.018;8.536;2023-04-03T16:21:54;6.50;96.30
11609;DHT22;5860;52.018;8.536;2023-04-03T16:24:21;6.60;96.00
11609;DHT22;5860;52.018;8.536;2023-04-03T16:26:49;6.80;96.20
11609;DHT22;5860;52.018;8.536;2023-04-03T16:29:16;6.80;95.60
11609;DHT22;5860;52.018;8.536;2023-04-03T16:31:43;6.70;94.90
11609;DHT22;5860;52.018;8.536;2023-04-03T16:34:10;6.80;95.50
11609;DHT22;5860;52.018;8.536;2023-04-03T16:36:38;6.80;94.90
11609;DHT22;5860;52.018;8.536;2023-04-03T16:39:05;6.80;94.70
11609;DHT22;5860;52.018;8.536;2023-04-03T16:41:31;6.90;95.30
11609;DHT22;5860;52.018;8.536;2023-04-03T16:43:58;6.80;95.60
11609;DHT22;5860;52.018;8.536;2023-04-03T16:46:25;6.80;95.70
11609;DHT22;5860;52.018;8.536;2023-04-03T16:48:52;6.80;95.90
11609;DHT22;5860;52.018;8.536;2023-04-03T16:51:19;6.60;95.20
11609;DHT22;5860;52.018;8.536;2023-04-03T16:53:47;6.60;95.60
11609;DHT22;5860;52.018;8.536;2023-04-03T16:56:14;6.60;95.70
11609;DHT22;5860;52.018;8.536;2023-04-03T16:58:41;6.50;95.70
11609;DHT22;5860;52.018;8.536;2023-04-03T17:01:13;6.40;95.90
11609;DHT22;5860;52.018;8.536;2023-04-03T17:03:40;6.40;96.40
11609;DHT22;5860;52.018;8.536;2023-04-03T17:06:08;6.40;96.20
11609;DHT22;5860;52.018;8.536;2023-04-03T17:08:46;6.50;96.00
11609;DHT22;5860;52.018;8.536;2023-04-03T17:11:14;6.50;96.20
11609;DHT22;5860;52.018;8.536;2023-04-03T17:13:41;6.40;96.50
11609;DHT22;5860;52.018;8.536;2023-04-03T17:16:12;6.30;96.90
11609;DHT22;5860;52.018;8.536;2023-04-03T17:18:40;6.20;96.60
11609;DHT22;5860;52.018;8.536;2023-04-03T17:21:08;6.20;97.00
11609;DHT22;5860;52.018;8.536;2023-04-03T17:23:36;6.20;97.00
11609;DHT22;5860;52.018;8.536;2023-04-03T17:26:04;6.10;97.30
11609;DHT22;5860;52.018;8.536;2023-04-03T17:28:31;6.10;97.10
11609;DHT22;5860;52.018;8.536;2023-04-03T17:31:00;6.10;96.60
11609;DHT22;5860;52.018;8.536;2023-04-03T17:33:29;6.10;96.80
11609;DHT22;5860;52.018;8.536;2023-04-03T17:35:58;6.00;97.00
11609;DHT22;5860;52.018;8.536;2023-04-03T17:38:27;5.90;97.20
11609;DHT22;5860;52.018;8.536;2023-04-03T17:40:59;5.90;97.80
11609;DHT22;5860;52.018;8.536;2023-04-03T17:43:27;5.80;97.60
11609;DHT22;5860;52.018;8.536;2023-04-03T17:46:05;5.80;98.00
11609;DHT22;5860;52.018;8.536;2023-04-03T17:48:36;5.80;97.60
11609;DHT22;5860;52.018;8.536;2023-04-03T17:51:22;5.80;97.80
11609;DHT22;5860;52.018;8.536;2023-04-03T17:53:50;5.70;97.90
11609;DHT22;5860;52.018;8.536;2023-04-03T17:56:22;5.60;98.20
11609;DHT22;5860;52.018;8.536;2023-04-03T17:58:50;5.60;98.20
11609;DHT22;5860;52.018;8.536;2023-04-03T18:01:20;5.60;98.50
11609;DHT22;5860;52.018;8.536;2023-04-03T18:03:48;5.40;98.90